Time,TemperatureF,DewpointF,PressureIn,WindDirection,WindDirectionDegrees,WindSpeedMPH,WindSpeedGustMPH,Humidity,HourlyPrecipIn,Conditions,Clouds,dailyrainin,SoftwareType,DateUTC
2013-01-04 00:00:00,14.8,10.3,30.34,SW,225,6.0,7.0,82,0.00,,,0.00,Wunderground v.1.15,2013-01-04 06:00:00,
2013-01-04 00:10:00,15.3,10.8,30.33,SW,225,7.0,7.0,82,0.00,,,0.00,Wunderground v.1.15,2013-01-04 06:10:00,
2013-01-04 00:20:00,14.1,9.3,30.33,SW,224,7.0,7.0,81,0.00,,,0.00,Wunderground v.1.15,2013-01-04 06:20:00,
2013-01-04 00:30:00,14.8,10.6,30.32,SW,223,8.0,8.0,83,0.00,,,0.00,Wunderground v.1.15,2013-01-04 06:30:00,
2013-01-04 00:40:00,14.3,9.8,30.32,SW,223,8.0,8.0,82,0.00,,,0.00,Wunderground v.1.15,2013-01-04 06:40:00,
2013-01-04 00:45:00,14.1,9.6,30.32,SW,223,7.0,8.0,82,0.00,,,0.00,Wunderground v.1.15,2013-01-04 06:45:00,
2013-01-04 00:50:00,14.1,9.6,30.32,SW,223,7.0,7.0,82,0.00,,,0.00,Wunderground v.1.15,2013-01-04 06:50:00,
2013-01-04 01:00:00,14.4,9.9,30.31,SW,223,7.0,7.0,82,0.00,,,0.00,Wunderground v.1.15,2013-01-04 07:00:00,
2013-01-04 01:10:00,14.0,9.5,30.31,SW,223,6.0,6.0,82,0.00,,,0.00,Wunderground v.1.15,2013-01-04 07:10:00,
2013-01-04 01:20:00,13.0,8.3,30.31,SW,223,5.0,5.0,81,0.00,,,0.00,Wunderground v.1.15,2013-01-04 07:20:00,
2013-01-04 01:30:00,11.9,7.2,30.31,SW,223,4.0,4.0,81,0.00,,,0.00,Wunderground v.1.15,2013-01-04 07:30:00,
2013-01-04 01:35:00,11.6,6.9,30.31,SW,223,3.0,4.0,81,0.00,,,0.00,Wunderground v.1.15,2013-01-04 07:35:00,
2013-01-04 01:45:00,12.8,8.6,30.31,SW,223,5.0,5.0,83,0.00,,,0.00,Wunderground v.1.15,2013-01-04 07:45:00,
2013-01-04 01:50:00,13.4,9.2,30.31,SW,223,6.0,6.0,83,0.00,,,0.00,Wunderground v.1.15,2013-01-04 07:50:00,
2013-01-04 02:00:00,14.3,9.8,30.30,SW,224,6.0,6.0,82,0.00,,,0.00,Wunderground v.1.15,2013-01-04 08:00:00,
2013-01-04 02:05:00,14.4,9.9,30.30,SW,224,6.0,9.0,82,0.00,,,0.00,Wunderground v.1.15,2013-01-04 08:05:00,
2013-01-04 02:10:00,14.4,9.6,30.30,SW,224,6.0,9.0,81,0.00,,,0.00,Wunderground v.1.15,2013-01-04 08:10:00,
2013-01-04 02:20:00,14.1,9.3,30.30,SW,224,6.0,6.0,81,0.00,,,0.00,Wunderground v.1.15,2013-01-04 08:20:00,
2013-01-04 02:30:00,14.0,9.0,30.30,SW,224,6.0,6.0,80,0.00,,,0.00,Wunderground v.1.15,2013-01-04 08:30:00,
2013-01-04 02:40:00,13.6,8.6,30.29,SW,224,5.0,5.0,80,0.00,,,0.00,Wunderground v.1.15,2013-01-04 08:40:00,
2013-01-04 02:50:00,13.4,8.4,30.30,SW,224,4.0,9.0,80,0.00,,,0.00,Wunderground v.1.15,2013-01-04 08:50:00,
2013-01-04 02:55:00,13.4,8.4,30.30,SW,224,5.0,9.0,80,0.00,,,0.00,Wunderground v.1.15,2013-01-04 08:55:00,
2013-01-04 03:05:00,12.7,7.7,30.30,SW,224,5.0,9.0,80,0.00,,,0.00,Wunderground v.1.15,2013-01-04 09:05:00,
2013-01-04 03:15:00,12.5,7.5,30.30,SW,224,5.0,9.0,80,0.00,,,0.00,Wunderground v.1.15,2013-01-04 09:15:00,
2013-01-04 03:20:00,12.2,7.2,30.30,SW,224,5.0,5.0,80,0.00,,,0.00,Wunderground v.1.15,2013-01-04 09:20:00,
2013-01-04 03:25:00,11.9,6.9,30.29,SW,224,4.0,9.0,80,0.00,,,0.00,Wunderground v.1.15,2013-01-04 09:25:00,
2013-01-04 03:30:00,12.0,7.0,30.29,SW,224,4.0,4.0,80,0.00,,,0.00,Wunderground v.1.15,2013-01-04 09:30:00,
2013-01-04 03:40:00,11.7,6.7,30.28,SW,224,3.0,9.0,80,0.00,,,0.00,Wunderground v.1.15,2013-01-04 09:40:00,
2013-01-04 03:45:00,11.8,6.8,30.29,SW,224,4.0,9.0,80,0.00,,,0.00,Wunderground v.1.15,2013-01-04 09:45:00,
2013-01-04 03:50:00,12.1,7.1,30.28,SW,224,4.0,9.0,80,0.00,,,0.00,Wunderground v.1.15,2013-01-04 09:50:00,
2013-01-04 04:00:00,11.8,6.8,30.28,SW,224,5.0,9.0,80,0.00,,,0.00,Wunderground v.1.15,2013-01-04 10:00:00,
2013-01-04 04:10:00,11.6,6.3,30.29,SW,224,6.0,6.0,79,0.00,,,0.00,Wunderground v.1.15,2013-01-04 10:10:00,
2013-01-04 04:15:00,10.7,5.2,30.28,SW,224,5.0,9.0,78,0.00,,,0.00,Wunderground v.1.15,2013-01-04 10:15:00,
2013-01-04 04:25:00,9.4,3.9,30.28,SW,224,2.0,9.0,78,0.00,,,0.00,Wunderground v.1.15,2013-01-04 10:25:00,
2013-01-04 04:30:00,9.2,4.0,30.28,SW,224,0.0,9.0,79,0.00,,,0.00,Wunderground v.1.15,2013-01-04 10:30:00,
2013-01-04 04:40:00,8.9,4.0,30.28,SW,224,1.0,9.0,80,0.00,,,0.00,Wunderground v.1.15,2013-01-04 10:40:00,
2013-01-04 04:50:00,8.4,3.5,30.27,SW,224,0.0,9.0,80,0.00,,,0.00,Wunderground v.1.15,2013-01-04 10:50:00,
2013-01-04 05:00:00,9.0,4.4,30.27,SW,224,1.0,1.0,81,0.00,,,0.00,Wunderground v.1.15,2013-01-04 11:00:00,
2013-01-04 05:05:00,9.2,4.6,30.27,SW,224,1.0,9.0,81,0.00,,,0.00,Wunderground v.1.15,2013-01-04 11:05:00,
2013-01-04 05:15:00,8.8,3.9,30.28,SW,224,1.0,9.0,80,0.00,,,0.00,Wunderground v.1.15,2013-01-04 11:15:00,
2013-01-04 05:25:00,9.0,4.4,30.28,SW,224,1.0,9.0,81,0.00,,,0.00,Wunderground v.1.15,2013-01-04 11:25:00,
2013-01-04 05:35:00,9.2,4.6,30.28,SW,224,2.0,9.0,81,0.00,,,0.00,Wunderground v.1.15,2013-01-04 11:35:00,
2013-01-04 05:40:00,9.2,4.6,30.28,SW,224,2.0,9.0,81,0.00,,,0.00,Wunderground v.1.15,2013-01-04 11:40:00,
2013-01-04 05:50:00,9.2,4.6,30.28,SW,224,2.0,2.0,81,0.00,,,0.00,Wunderground v.1.15,2013-01-04 11:50:00,
2013-01-04 06:00:00,8.5,3.6,30.28,SW,224,0.0,0.0,80,0.00,,,0.00,Wunderground v.1.15,2013-01-04 12:00:00,
2013-01-04 06:10:00,8.7,4.1,30.28,SW,224,0.0,0.0,81,0.00,,,0.00,Wunderground v.1.15,2013-01-04 12:10:00,
2013-01-04 06:20:00,9.4,4.7,30.28,SW,224,0.0,0.0,81,0.00,,,0.00,Wunderground v.1.15,2013-01-04 12:20:00,
2013-01-04 06:30:00,9.1,4.5,30.28,SW,224,0.0,0.0,81,0.00,,,0.00,Wunderground v.1.15,2013-01-04 12:30:00,
2013-01-04 06:40:00,8.8,4.2,30.28,SW,224,0.0,0.0,81,0.00,,,0.00,Wunderground v.1.15,2013-01-04 12:40:00,
2013-01-04 06:50:00,8.6,4.0,30.28,SW,224,0.0,0.0,81,0.00,,,0.00,Wunderground v.1.15,2013-01-04 12:50:00,
2013-01-04 07:00:00,8.6,4.0,30.28,SW,224,0.0,0.0,81,0.00,,,0.00,Wunderground v.1.15,2013-01-04 13:00:00,
2013-01-04 07:10:00,8.2,3.6,30.28,SW,224,0.0,1.0,81,0.00,,,0.00,Wunderground v.1.15,2013-01-04 13:10:00,
2013-01-04 07:15:00,8.1,3.5,30.29,SW,224,0.0,1.0,81,0.00,,,0.00,Wunderground v.1.15,2013-01-04 13:15:00,
2013-01-04 07:20:00,8.0,3.4,30.28,SW,224,0.0,0.0,81,0.00,,,0.00,Wunderground v.1.15,2013-01-04 13:20:00,
2013-01-04 07:30:00,7.7,3.1,30.28,SW,224,0.0,0.0,81,0.00,,,0.00,Wunderground v.1.15,2013-01-04 13:30:00,
2013-01-04 07:40:00,7.9,3.5,30.29,SW,224,0.0,0.0,82,0.00,,,0.00,Wunderground v.1.15,2013-01-04 13:40:00,
2013-01-04 07:50:00,7.5,2.9,30.29,SW,224,1.0,1.0,81,0.00,,,0.00,Wunderground v.1.15,2013-01-04 13:50:00,
2013-01-04 07:55:00,7.2,2.6,30.29,SW,224,1.0,1.0,81,0.00,,,0.00,Wunderground v.1.15,2013-01-04 13:55:00,
2013-01-04 08:00:00,7.0,2.4,30.29,SW,224,0.0,0.0,81,0.00,,,0.00,Wunderground v.1.15,2013-01-04 14:00:00,
2013-01-04 08:10:00,6.6,2.0,30.29,SW,224,0.0,3.0,81,0.00,,,0.00,Wunderground v.1.15,2013-01-04 14:10:00,
2013-01-04 08:20:00,6.7,2.4,30.29,SW,224,0.0,3.0,82,0.00,,,0.00,Wunderground v.1.15,2013-01-04 14:20:00,
2013-01-04 08:30:00,7.2,2.9,30.29,SW,224,0.0,3.0,82,0.00,,,0.00,Wunderground v.1.15,2013-01-04 14:30:00,
2013-01-04 08:35:00,7.9,3.8,30.29,SW,224,0.0,3.0,83,0.00,,,0.00,Wunderground v.1.15,2013-01-04 14:35:00,
2013-01-04 08:40:00,8.7,4.6,30.30,SW,224,0.0,3.0,83,0.00,,,0.00,Wunderground v.1.15,2013-01-04 14:40:00,
2013-01-04 08:50:00,10.2,6.1,30.30,SW,224,0.0,3.0,83,0.00,,,0.00,Wunderground v.1.15,2013-01-04 14:50:00,
2013-01-04 09:00:00,11.1,6.7,30.29,SW,224,1.0,3.0,82,0.00,,,0.00,Wunderground v.1.15,2013-01-04 15:00:00,
2013-01-04 09:10:00,11.6,6.6,30.30,SW,224,2.0,3.0,80,0.00,,,0.00,Wunderground v.1.15,2013-01-04 15:10:00,
2013-01-04 09:20:00,12.1,7.1,30.30,SW,224,1.0,1.0,80,0.00,,,0.00,Wunderground v.1.15,2013-01-04 15:20:00,
2013-01-04 09:25:00,13.1,8.1,30.30,SW,224,0.0,3.0,80,0.00,,,0.00,Wunderground v.1.15,2013-01-04 15:25:00,
2013-01-04 09:30:00,14.8,10.0,30.30,SW,224,0.0,3.0,81,0.00,,,0.00,Wunderground v.1.15,2013-01-04 15:30:00,
2013-01-04 09:40:00,16.2,10.0,30.30,SW,224,0.0,3.0,76,0.00,,,0.00,Wunderground v.1.15,2013-01-04 15:40:00,
2013-01-04 09:50:00,18.4,11.5,30.31,SW,224,0.0,3.0,74,0.00,,,0.00,Wunderground v.1.15,2013-01-04 15:50:00,
2013-01-04 10:00:00,19.4,11.8,30.31,SW,224,0.0,3.0,72,0.00,,,0.00,Wunderground v.1.15,2013-01-04 16:00:00,
2013-01-04 10:05:00,20.3,12.7,30.31,SW,224,0.0,3.0,72,0.00,,,0.00,Wunderground v.1.15,2013-01-04 16:05:00,
2013-01-04 10:15:00,21.0,12.7,30.31,SW,224,0.0,3.0,70,0.00,,,0.00,Wunderground v.1.15,2013-01-04 16:15:00,
2013-01-04 10:20:00,21.3,12.7,30.31,SW,224,0.0,3.0,69,0.00,,,0.00,Wunderground v.1.15,2013-01-04 16:20:00,
2013-01-04 10:30:00,21.8,12.2,30.31,SW,224,2.0,3.0,66,0.00,,,0.00,Wunderground v.1.15,2013-01-04 16:30:00,
2013-01-04 10:35:00,22.0,12.0,30.31,SW,224,3.0,3.0,65,0.00,,,0.00,Wunderground v.1.15,2013-01-04 16:35:00,
2013-01-04 10:45:00,22.8,12.8,30.31,SW,224,2.0,3.0,65,0.00,,,0.00,Wunderground v.1.15,2013-01-04 16:45:00,
2013-01-04 10:50:00,23.4,13.4,30.31,SW,224,1.0,3.0,65,0.00,,,0.00,Wunderground v.1.15,2013-01-04 16:50:00,
2013-01-04 11:00:00,24.1,12.9,30.31,SW,224,2.0,3.0,62,0.00,,,0.00,Wunderground v.1.15,2013-01-04 17:00:00,
2013-01-04 11:05:00,24.4,13.2,30.31,SW,224,3.0,3.0,62,0.00,,,0.00,Wunderground v.1.15,2013-01-04 17:05:00,
2013-01-04 11:15:00,25.2,13.6,30.31,SW,224,2.0,3.0,61,0.00,,,0.00,Wunderground v.1.15,2013-01-04 17:15:00,
2013-01-04 11:20:00,25.6,14.4,30.30,SW,224,2.0,3.0,62,0.00,,,0.00,Wunderground v.1.15,2013-01-04 17:20:00,
2013-01-04 11:30:00,26.7,15.0,30.30,SW,224,2.0,3.0,61,0.00,,,0.00,Wunderground v.1.15,2013-01-04 17:30:00,
2013-01-04 11:40:00,27.8,15.3,30.30,SW,224,3.0,3.0,59,0.00,,,0.00,Wunderground v.1.15,2013-01-04 17:40:00,
2013-01-04 11:50:00,28.4,16.3,30.29,SW,224,3.0,3.0,60,0.00,,,0.00,Wunderground v.1.15,2013-01-04 17:50:00,
2013-01-04 12:00:00,29.1,16.5,30.29,SW,224,2.0,2.0,59,0.00,,,0.00,Wunderground v.1.15,2013-01-04 18:00:00,
2013-01-04 12:10:00,30.7,16.8,30.28,SW,224,1.0,2.0,56,0.00,,,0.00,Wunderground v.1.15,2013-01-04 18:10:00,
2013-01-04 12:20:00,31.6,17.3,30.28,SW,224,2.0,4.0,55,0.00,,,0.00,Wunderground v.1.15,2013-01-04 18:20:00,
2013-01-04 12:30:00,32.2,17.4,30.27,SW,224,3.0,5.0,54,0.00,,,0.00,Wunderground v.1.15,2013-01-04 18:30:00,
2013-01-04 12:40:00,32.5,17.7,30.26,SW,224,4.0,4.0,54,0.00,,,0.00,Wunderground v.1.15,2013-01-04 18:40:00,
2013-01-04 12:50:00,32.8,18.0,30.26,SW,224,3.0,3.0,54,0.00,,,0.00,Wunderground v.1.15,2013-01-04 18:50:00,
2013-01-04 12:55:00,33.2,18.3,30.26,SW,224,3.0,4.0,54,0.00,,,0.00,Wunderground v.1.15,2013-01-04 18:55:00,
2013-01-04 13:05:00,33.8,19.3,30.25,SW,224,3.0,3.0,55,0.00,,,0.00,Wunderground v.1.15,2013-01-04 19:05:00,
2013-01-04 13:10:00,34.3,20.6,30.25,SW,224,3.0,4.0,57,0.00,,,0.00,Wunderground v.1.15,2013-01-04 19:10:00,
2013-01-04 13:20:00,35.0,20.0,30.25,SW,224,3.0,3.0,54,0.00,,,0.00,Wunderground v.1.15,2013-01-04 19:20:00,
2013-01-04 13:35:00,36.0,19.6,30.24,SW,224,2.0,3.0,51,0.00,,,0.00,Wunderground v.1.15,2013-01-04 19:35:00,
2013-01-04 13:40:00,36.5,20.1,30.24,SW,224,2.0,2.0,51,0.00,,,0.00,Wunderground v.1.15,2013-01-04 19:40:00,
2013-01-04 13:50:00,37.1,19.7,30.24,SW,224,2.0,3.0,49,0.00,,,0.00,Wunderground v.1.15,2013-01-04 19:50:00,
2013-01-04 14:00:00,36.9,19.5,30.24,SW,224,3.0,5.0,49,0.00,,,0.00,Wunderground v.1.15,2013-01-04 20:00:00,
2013-01-04 14:10:00,37.0,21.4,30.24,SW,224,4.0,4.0,53,0.00,,,0.00,Wunderground v.1.15,2013-01-04 20:10:00,
2013-01-04 14:15:00,37.3,21.7,30.24,SW,224,4.0,5.0,53,0.00,,,0.00,Wunderground v.1.15,2013-01-04 20:15:00,
2013-01-04 14:20:00,37.3,21.7,30.24,SW,224,4.0,4.0,53,0.00,,,0.00,Wunderground v.1.15,2013-01-04 20:20:00,
2013-01-04 14:30:00,37.7,22.1,30.24,SW,224,3.0,3.0,53,0.00,,,0.00,Wunderground v.1.15,2013-01-04 20:30:00,
2013-01-04 14:35:00,38.2,22.1,30.24,SW,224,3.0,5.0,52,0.00,,,0.00,Wunderground v.1.15,2013-01-04 20:35:00,
2013-01-04 14:40:00,38.5,22.8,30.23,SW,224,2.0,5.0,53,0.00,,,0.00,Wunderground v.1.15,2013-01-04 20:40:00,
2013-01-04 14:50:00,38.9,22.3,30.24,SW,224,3.0,5.0,51,0.00,,,0.00,Wunderground v.1.15,2013-01-04 20:50:00,
2013-01-04 15:00:00,38.9,22.3,30.23,SW,224,3.0,5.0,51,0.00,,,0.00,Wunderground v.1.15,2013-01-04 21:00:00,
2013-01-04 15:10:00,38.6,23.4,30.23,SW,224,4.0,4.0,54,0.00,,,0.00,Wunderground v.1.15,2013-01-04 21:10:00,
2013-01-04 15:20:00,39.2,23.5,30.23,SW,224,3.0,3.0,53,0.00,,,0.00,Wunderground v.1.15,2013-01-04 21:20:00,
2013-01-04 15:30:00,39.3,24.5,30.23,SW,224,3.0,3.0,55,0.00,,,0.00,Wunderground v.1.15,2013-01-04 21:30:00,
2013-01-04 15:35:00,39.5,24.7,30.23,SW,224,2.0,5.0,55,0.00,,,0.00,Wunderground v.1.15,2013-01-04 21:35:00,
2013-01-04 15:45:00,39.6,23.4,30.23,SW,224,2.0,5.0,52,0.00,,,0.00,Wunderground v.1.15,2013-01-04 21:45:00,
2013-01-04 15:55:00,39.6,22.9,30.23,SW,224,2.0,5.0,51,0.00,,,0.00,Wunderground v.1.15,2013-01-04 21:55:00,
2013-01-04 16:00:00,39.5,22.8,30.22,SW,224,2.0,2.0,51,0.00,,,0.00,Wunderground v.1.15,2013-01-04 22:00:00,
2013-01-04 16:10:00,39.4,23.2,30.22,SW,224,1.0,1.0,52,0.00,,,0.00,Wunderground v.1.15,2013-01-04 22:10:00,
2013-01-04 16:20:00,39.3,23.1,30.22,SW,224,0.0,5.0,52,0.00,,,0.00,Wunderground v.1.15,2013-01-04 22:20:00,
2013-01-04 16:30:00,38.9,23.7,30.22,SW,224,0.0,5.0,54,0.00,,,0.00,Wunderground v.1.15,2013-01-04 22:30:00,
2013-01-04 16:35:00,38.5,23.7,30.22,SW,224,0.0,5.0,55,0.00,,,0.00,Wunderground v.1.15,2013-01-04 22:35:00,
2013-01-04 16:40:00,38.0,23.3,30.22,SW,224,0.0,5.0,55,0.00,,,0.00,Wunderground v.1.15,2013-01-04 22:40:00,
2013-01-04 16:50:00,36.3,22.5,30.22,SW,224,1.0,1.0,57,0.00,,,0.00,Wunderground v.1.15,2013-01-04 22:50:00,
2013-01-04 16:55:00,35.8,22.9,30.22,SW,224,1.0,5.0,59,0.00,,,0.00,Wunderground v.1.15,2013-01-04 22:55:00,
2013-01-04 17:05:00,35.0,22.5,30.21,SW,224,0.0,5.0,60,0.00,,,0.00,Wunderground v.1.15,2013-01-04 23:05:00,
2013-01-04 17:10:00,34.5,22.4,30.22,SW,224,0.0,5.0,61,0.00,,,0.00,Wunderground v.1.15,2013-01-04 23:10:00,
2013-01-04 17:20:00,33.3,21.7,30.21,SW,224,0.0,5.0,62,0.00,,,0.00,Wunderground v.1.15,2013-01-04 23:20:00,
2013-01-04 17:30:00,32.3,21.8,30.21,SW,224,0.0,5.0,65,0.00,,,0.00,Wunderground v.1.15,2013-01-04 23:30:00,
2013-01-04 17:40:00,32.0,23.7,30.21,SW,224,0.0,5.0,71,0.00,,,0.00,Wunderground v.1.15,2013-01-04 23:40:00,
2013-01-04 17:50:00,31.1,21.8,30.21,SW,224,0.0,5.0,68,0.00,,,0.00,Wunderground v.1.15,2013-01-04 23:50:00,
2013-01-04 17:55:00,30.5,21.2,30.20,SW,224,0.0,5.0,68,0.00,,,0.00,Wunderground v.1.15,2013-01-04 23:55:00,
2013-01-04 18:00:00,30.1,21.5,30.20,SW,224,1.0,2.0,70,0.00,,,0.00,Wunderground v.1.15,2013-01-05 00:00:00,
2013-01-04 18:10:00,29.7,21.1,30.20,SW,224,2.0,2.0,70,0.00,,,0.00,Wunderground v.1.15,2013-01-05 00:10:00,
2013-01-04 18:20:00,29.1,21.2,30.19,SW,224,2.0,2.0,72,0.00,,,0.00,Wunderground v.1.15,2013-01-05 00:20:00,
2013-01-04 18:30:00,29.0,20.8,30.20,SW,224,2.0,2.0,71,0.00,,,0.00,Wunderground v.1.15,2013-01-05 00:30:00,
2013-01-04 18:40:00,28.0,20.1,30.20,SW,224,1.0,1.0,72,0.00,,,0.00,Wunderground v.1.15,2013-01-05 00:40:00,
2013-01-04 18:45:00,28.0,20.5,30.19,SW,224,1.0,1.0,73,0.00,,,0.00,Wunderground v.1.15,2013-01-05 00:45:00,
2013-01-04 18:55:00,27.6,19.4,30.19,SW,224,1.0,2.0,71,0.00,,,0.00,Wunderground v.1.15,2013-01-05 00:55:00,
2013-01-04 19:05:00,25.9,18.1,30.20,SW,224,0.0,1.0,72,0.00,,,0.00,Wunderground v.1.15,2013-01-05 01:05:00,
2013-01-04 19:10:00,25.8,18.7,30.20,SW,224,0.0,0.0,74,0.00,,,0.00,Wunderground v.1.15,2013-01-05 01:10:00,
2013-01-04 19:25:00,26.5,19.6,30.19,SW,224,0.0,0.0,75,0.00,,,0.00,Wunderground v.1.15,2013-01-05 01:25:00,
2013-01-04 19:30:00,26.5,19.6,30.20,SW,224,0.0,2.0,75,0.00,,,0.00,Wunderground v.1.15,2013-01-05 01:30:00,
2013-01-04 19:35:00,26.9,20.0,30.20,SW,223,2.0,3.0,75,0.00,,,0.00,Wunderground v.1.15,2013-01-05 01:35:00,
2013-01-04 19:40:00,26.9,20.0,30.20,SW,223,4.0,4.0,75,0.00,,,0.00,Wunderground v.1.15,2013-01-05 01:40:00,
2013-01-04 19:50:00,27.7,20.8,30.20,South,172,4.0,4.0,75,0.00,,,0.00,Wunderground v.1.15,2013-01-05 01:50:00,
2013-01-04 20:00:00,28.3,20.4,30.20,South,184,5.0,6.0,72,0.00,,,0.00,Wunderground v.1.15,2013-01-05 02:00:00,
2013-01-04 20:10:00,27.9,19.7,30.20,South,182,4.0,4.0,71,0.00,,,0.00,Wunderground v.1.15,2013-01-05 02:10:00,
2013-01-04 20:20:00,27.1,18.9,30.20,South,171,4.0,5.0,71,0.00,,,0.00,Wunderground v.1.15,2013-01-05 02:20:00,
2013-01-04 20:25:00,26.8,19.0,30.20,South,173,4.0,5.0,72,0.00,,,0.00,Wunderground v.1.15,2013-01-05 02:25:00,
2013-01-04 20:35:00,26.2,18.1,30.20,South,173,2.0,4.0,71,0.00,,,0.00,Wunderground v.1.15,2013-01-05 02:35:00,
2013-01-04 20:40:00,25.7,17.6,30.19,South,173,0.0,2.0,71,0.00,,,0.00,Wunderground v.1.15,2013-01-05 02:40:00,
2013-01-04 20:50:00,24.5,16.8,30.19,South,173,1.0,1.0,72,0.00,,,0.00,Wunderground v.1.15,2013-01-05 02:50:00,
2013-01-04 21:00:00,23.5,16.1,30.19,South,173,0.0,2.0,73,0.00,,,0.00,Wunderground v.1.15,2013-01-05 03:00:00,
2013-01-04 21:10:00,23.3,16.5,30.18,South,173,0.0,2.0,75,0.00,,,0.00,Wunderground v.1.15,2013-01-05 03:10:00,
2013-01-04 21:15:00,22.9,16.2,30.18,South,173,1.0,4.0,75,0.00,,,0.00,Wunderground v.1.15,2013-01-05 03:15:00,
2013-01-04 21:20:00,22.9,15.8,30.18,South,173,1.0,1.0,74,0.00,,,0.00,Wunderground v.1.15,2013-01-05 03:20:00,
2013-01-04 21:30:00,21.8,15.1,30.18,South,173,1.0,2.0,75,0.00,,,0.00,Wunderground v.1.15,2013-01-05 03:30:00,
2013-01-04 21:40:00,21.5,14.8,30.17,South,173,1.0,1.0,75,0.00,,,0.00,Wunderground v.1.15,2013-01-05 03:40:00,
2013-01-04 21:50:00,20.4,14.0,30.17,South,173,0.0,2.0,76,0.00,,,0.00,Wunderground v.1.15,2013-01-05 03:50:00,
2013-01-04 22:00:00,20.6,14.8,30.17,South,173,0.0,2.0,78,0.00,,,0.00,Wunderground v.1.15,2013-01-05 04:00:00,
2013-01-04 22:05:00,20.9,15.4,30.18,South,173,1.0,2.0,79,0.00,,,0.00,Wunderground v.1.15,2013-01-05 04:05:00,
2013-01-04 22:10:00,20.5,14.4,30.17,South,173,1.0,1.0,77,0.00,,,0.00,Wunderground v.1.15,2013-01-05 04:10:00,
2013-01-04 22:20:00,19.5,13.5,30.17,South,173,0.0,2.0,77,0.00,,,0.00,Wunderground v.1.15,2013-01-05 04:20:00,
2013-01-04 22:30:00,19.4,13.7,30.17,South,173,0.0,2.0,78,0.00,,,0.00,Wunderground v.1.15,2013-01-05 04:30:00,
2013-01-04 22:35:00,19.6,14.1,30.17,South,173,0.0,2.0,79,0.00,,,0.00,Wunderground v.1.15,2013-01-05 04:35:00,
2013-01-04 22:40:00,19.6,14.1,30.17,South,173,0.0,2.0,79,0.00,,,0.00,Wunderground v.1.15,2013-01-05 04:40:00,
2013-01-04 22:50:00,19.4,14.2,30.16,South,173,0.0,2.0,80,0.00,,,0.00,Wunderground v.1.15,2013-01-05 04:50:00,
2013-01-04 23:00:00,20.2,15.3,30.16,South,173,1.0,2.0,81,0.00,,,0.00,Wunderground v.1.15,2013-01-05 05:00:00,
2013-01-04 23:05:00,20.3,15.4,30.15,South,173,1.0,2.0,81,0.00,,,0.00,Wunderground v.1.15,2013-01-05 05:05:00,
2013-01-04 23:10:00,20.5,15.6,30.15,South,173,0.0,2.0,81,0.00,,,0.00,Wunderground v.1.15,2013-01-05 05:10:00,
2013-01-04 23:20:00,19.8,14.3,30.15,South,173,0.0,2.0,79,0.00,,,0.00,Wunderground v.1.15,2013-01-05 05:20:00,
2013-01-04 23:25:00,19.2,13.8,30.15,South,173,0.0,2.0,79,0.00,,,0.00,Wunderground v.1.15,2013-01-05 05:25:00,
2013-01-04 23:30:00,18.6,13.2,30.15,South,173,0.0,2.0,79,0.00,,,0.00,Wunderground v.1.15,2013-01-05 05:30:00,
2013-01-04 23:40:00,17.8,12.4,30.14,South,173,0.0,2.0,79,0.00,,,0.00,Wunderground v.1.15,2013-01-05 05:40:00,
2013-01-04 23:50:00,17.4,12.3,30.14,South,173,1.0,4.0,80,0.00,,,0.00,Wunderground v.1.15,2013-01-05 05:50:00,